Time;durP1;ratioP1;P1;durP2;ratioP2;P2;SDS_P1;SDS_P2;PMS_P1;PMS_P2;Temp;Humidity;BMP_temperature;BMP_pressure;BME280_temperature;BME280_humidity;BME280_pressure;Samples;Min_cycle;Max_cycle;Signal;HPM_P1;HPM_P2
2021/04/14 00:00:31;;;;;;;5.32;2.65;;;;;;;4.12;53.38;98630.53;10309793;28;20436;-75
2021/04/14 00:05:51;;;;;;;5.43;2.65;;;;;;;4.07;53.59;98628.63;10309574;28;20077;-76
2021/04/14 00:11:17;;;;;;;5.68;2.67;;;;;;;4.02;54.00;98632.94;10322817;28;20397;-76
2021/04/14 00:16:37;;;;;;;8.00;2.83;;;;;;;4.00;54.11;98626.47;10308545;28;20038;-75
2021/04/14 00:21:57;;;;;;;7.15;2.70;;;;;;;3.94;54.41;98632.09;10308527;28;20405;-75
2021/04/14 00:27:17;;;;;;;5.20;2.75;;;;;;;3.89;54.68;98630.19;10308359;28;20421;-76
2021/04/14 00:32:36;;;;;;;4.00;2.67;;;;;;;3.83;54.66;98639.81;10321743;28;20042;-75
2021/04/14 00:37:57;;;;;;;5.10;2.70;;;;;;;3.77;54.97;98633.66;10308123;28;20046;-75
2021/04/14 00:43:26;;;;;;;6.82;2.83;;;;;;;3.78;55.25;98635.16;10307546;28;20050;-75
2021/04/14 00:48:46;;;;;;;5.95;3.20;;;;;;;3.78;55.21;98638.66;10321224;28;20047;-76
2021/04/14 00:54:06;;;;;;;4.53;2.70;;;;;;;3.78;55.44;98635.16;10320575;28;20085;-76
2021/04/14 00:59:25;;;;;;;4.78;2.70;;;;;;;3.72;56.03;98638.72;10307096;28;20045;-75
2021/04/14 01:04:45;;;;;;;4.97;2.83;;;;;;;3.65;56.36;98644.88;10320562;28;20053;-74
2021/04/14 01:10:06;;;;;;;5.03;2.97;;;;;;;3.56;55.85;98639.72;10307090;28;20042;-75
2021/04/14 01:15:37;;;;;;;4.78;2.53;;;;;;;3.51;56.20;98637.81;10306790;28;20049;-76
2021/04/14 01:20:57;;;;;;;6.80;2.90;;;;;;;3.51;56.36;98635.06;10307132;28;20042;-75
2021/04/14 01:26:17;;;;;;;4.05;2.70;;;;;;;3.53;56.85;98632.50;10306593;28;20441;-75
2021/04/14 01:31:37;;;;;;;7.38;3.67;;;;;;;3.56;56.43;98633.47;10306002;28;20050;-75
2021/04/14 01:36:57;;;;;;;6.13;3.30;;;;;;;3.61;56.86;98636.16;10304588;28;20042;-75
2021/04/14 01:42:16;;;;;;;7.72;3.50;;;;;;;3.59;57.04;98635.94;10319903;28;20053;-75
2021/04/14 01:47:36;;;;;;;7.82;3.22;;;;;;;3.54;56.44;98634.00;10305704;28;20045;-74
2021/04/14 01:52:56;;;;;;;12.80;7.72;;;;;;;3.52;56.36;98633.78;10305522;28;20055;-75
2021/04/14 01:58:17;;;;;;;9.20;3.80;;;;;;;3.55;57.13;98632.72;10305707;28;20054;-76
2021/04/14 02:03:38;;;;;;;3.83;2.20;;;;;;;3.55;56.92;98634.75;10306138;28;20053;-76
2021/04/14 02:08:58;;;;;;;7.60;2.75;;;;;;;3.46;57.50;98627.59;10319176;28;20046;-76
2021/04/14 02:14:18;;;;;;;7.25;2.80;;;;;;;3.35;57.30;98636.03;10305138;28;20042;-75
2021/04/14 02:19:37;;;;;;;5.75;2.40;;;;;;;3.28;57.93;98629.13;10291837;28;20042;-74
2021/04/14 02:24:57;;;;;;;4.68;2.30;;;;;;;3.24;58.19;98625.19;10305106;28;20051;-75
2021/04/14 02:30:27;;;;;;;5.32;2.55;;;;;;;3.19;58.17;98628.78;10318457;28;20050;-76
2021/04/14 02:35:48;;;;;;;5.82;2.17;;;;;;;3.14;58.20;98631.06;10306186;28;20042;-74
2021/04/14 02:41:08;;;;;;;3.63;2.05;;;;;;;3.11;58.31;98625.88;10318388;28;20069;-75
2021/04/14 02:46:28;;;;;;;4.63;2.22;;;;;;;3.10;58.51;98625.13;10306975;28;20050;-75
2021/04/14 02:51:48;;;;;;;4.95;2.20;;;;;;;3.07;58.31;98623.38;10311902;28;20081;-75
2021/04/14 02:57:08;;;;;;;5.72;2.08;;;;;;;3.09;58.47;98628.41;10311669;28;20050;-75
2021/04/14 03:02:29;;;;;;;6.82;1.90;;;;;;;3.02;59.01;98624.22;10325198;28;20053;-76
2021/04/14 03:07:48;;;;;;;6.65;1.75;;;;;;;3.00;58.15;98621.25;10325043;28;20050;-76
2021/04/14 03:13:08;;;;;;;5.07;2.42;;;;;;;2.98;58.80;98623.75;10311180;28;20034;-75
2021/04/14 03:18:28;;;;;;;7.50;2.72;;;;;;;2.91;59.13;98616.09;10324706;28;20045;-75
2021/04/14 03:23:48;;;;;;;5.18;2.55;;;;;;;2.88;59.43;98622.66;10310732;28;20046;-74
2021/04/14 03:29:08;;;;;;;9.25;2.72;;;;;;;2.75;60.01;98625.34;10324396;28;20073;-74
2021/04/14 03:34:27;;;;;;;4.00;2.50;;;;;;;2.61;60.15;98624.50;10310175;28;20053;-75
2021/04/14 03:39:47;;;;;;;5.22;2.90;;;;;;;2.52;59.27;98619.34;10324200;28;20043;-76
2021/04/14 03:45:13;;;;;;;5.72;2.67;;;;;;;2.46;59.75;98618.66;10309983;28;20050;-76
2021/04/14 03:50:33;;;;;;;5.90;2.67;;;;;;;2.43;59.73;98622.47;10310828;28;20058;-75
2021/04/14 03:56:20;;;;;;;7.28;2.88;;;;;;;2.32;59.95;98617.81;10309743;28;20042;-76
2021/04/14 04:01:58;;;;;;;5.20;2.25;;;;;;;2.27;60.17;98616.59;10321625;28;20050;-75
2021/04/14 04:07:18;;;;;;;8.15;2.88;;;;;;;2.19;60.44;98617.69;10311723;28;20046;-75
2021/04/14 04:12:37;;;;;;;4.45;2.33;;;;;;;2.16;61.10;98616.00;10345210;28;20042;-75
2021/04/14 04:17:57;;;;;;;5.10;2.50;;;;;;;2.10;61.13;98627.06;10335727;28;20449;-75
2021/04/14 04:23:17;;;;;;;6.10;2.60;;;;;;;2.18;60.71;98630.72;10308437;28;20045;-75
2021/04/14 04:28:37;;;;;;;5.72;2.45;;;;;;;2.36;61.47;98625.78;10335361;28;20504;-75
2021/04/14 04:33:57;;;;;;;4.88;2.00;;;;;;;2.50;61.14;98630.13;10307887;28;20050;-75
2021/04/14 04:39:19;;;;;;;6.50;2.25;;;;;;;2.69;60.65;98635.66;10334969;28;20045;-75
2021/04/14 04:44:38;;;;;;;5.45;1.95;;;;;;;2.97;60.62;98644.34;10320385;28;20547;-75
2021/04/14 04:49:58;;;;;;;8.65;2.20;;;;;;;3.33;60.67;98647.63;10307929;28;20049;-76
2021/04/14 04:55:18;;;;;;;5.43;2.03;;;;;;;3.74;59.79;98654.78;10358425;28;20072;-74
2021/04/14 05:00:38;;;;;;;6.07;2.42;;;;;;;4.18;59.49;98658.81;10347485;28;20112;-76
2021/04/14 05:05:58;;;;;;;6.57;2.78;;;;;;;4.59;59.71;98660.31;10360721;28;20041;-75
2021/04/14 05:11:18;;;;;;;5.32;2.50;;;;;;;5.01;59.17;98661.22;10348164;28;20496;-76
2021/04/14 05:16:37;;;;;;;6.75;2.10;;;;;;;5.66;58.78;98664.31;10320216;28;20379;-75
2021/04/14 05:21:57;;;;;;;6.15;2.05;;;;;;;7.02;57.44;98677.69;10333974;28;20042;-76
2021/04/14 05:27:17;;;;;;;6.72;2.30;;;;;;;8.26;56.27;98675.34;10333260;28;20050;-76
2021/04/14 05:32:38;;;;;;;4.68;1.90;;;;;;;8.02;54.60;98678.69;10306341;28;20046;-75
2021/04/14 05:37:57;;;;;;;5.88;1.77;;;;;;;7.69;54.55;98681.25;10319540;28;20046;-76
2021/04/14 05:43:25;;;;;;;5.10;2.03;;;;;;;8.31;55.21;98685.56;10319494;28;20497;-76
2021/04/14 05:48:46;;;;;;;4.93;1.88;;;;;;;10.01;55.63;98701.09;10333058;28;20405;-75
2021/04/14 05:54:06;;;;;;;5.35;2.35;;;;;;;11.79;54.15;98700.19;10318273;28;20492;-72
2021/04/14 05:59:26;;;;;;;4.75;2.03;;;;;;;14.03;50.35;98700.53;10332390;28;20077;-73
2021/04/14 06:04:46;;;;;;;5.07;2.30;;;;;;;14.16;46.28;98702.09;10332561;28;20043;-73
2021/04/14 06:10:07;;;;;;;4.30;1.75;;;;;;;13.55;45.04;98702.75;10318896;28;20049;-73
2021/04/14 06:15:30;;;;;;;5.80;1.90;;;;;;;12.58;44.73;98699.91;10332293;28;20109;-73
2021/04/14 06:20:50;;;;;;;7.80;2.60;;;;;;;13.25;45.02;98690.81;10333467;28;20065;-73
2021/04/14 06:31:30;;;;;;;5.93;2.00;;;;;;;16.29;40.24;98708.78;10339901;28;20069;-74
2021/04/14 06:36:54;;;;;;;6.90;1.88;;;;;;;17.65;36.80;98705.38;10339634;28;20065;-72
2021/04/14 06:42:46;;;;;;;7.15;1.80;;;;;;;17.65;35.22;98702.53;10339182;28;20054;-74
2021/04/14 06:49:02;;;;;;;5.95;2.08;;;;;;;20.79;31.71;98707.28;10339132;28;20125;-74
2021/04/14 06:54:44;;;;;;;5.03;1.63;;;;;;;22.63;27.79;98708.75;10343018;28;20061;-73
2021/04/14 07:00:11;;;;;;;7.77;1.60;;;;;;;22.61;22.53;98711.53;10339047;28;20042;-74
2021/04/14 07:05:35;;;;;;;4.97;1.65;;;;;;;20.97;24.91;98720.78;10337477;28;20042;-74
2021/04/14 07:10:58;;;;;;;7.75;1.73;;;;;;;22.84;23.60;98713.78;10324745;28;20043;-74
2021/04/14 07:16:27;;;;;;;3.65;1.27;;;;;;;22.26;22.44;98713.13;10311035;28;20050;-73
2021/04/14 07:22:31;;;;;;;5.43;1.45;;;;;;;21.55;21.87;98710.41;10338035;28;20085;-74
2021/04/14 07:28:09;;;;;;;;;;;;;;;24.95;20.78;98722.34;10337392;28;20393;-74
2021/04/14 07:34:12;;;;;;;5.78;1.70;;;;;;;29.77;16.60;98718.19;10336640;28;20373;-74
2021/04/14 07:40:03;;;;;;;6.97;1.38;;;;;;;34.20;13.74;98729.53;10319337;28;20053;-74
2021/04/14 07:45:33;;;;;;;13.73;2.25;;;;;;;34.72;10.74;98737.56;10323075;28;20054;-74
2021/04/14 07:50:59;;;;;;;18.33;2.38;;;;;;;29.31;12.49;98735.78;10359791;28;20050;-75
2021/04/14 07:56:21;;;;;;;6.93;1.00;;;;;;;28.77;13.02;98728.81;10338001;28;20169;-74
2021/04/14 08:01:53;;;;;;;8.63;1.40;;;;;;;29.13;12.05;98727.72;10336845;28;20042;-75
2021/04/14 08:07:23;;;;;;;4.60;1.10;;;;;;;25.57;13.41;98718.88;10335656;28;20049;-74
2021/04/14 08:13:06;;;;;;;5.78;1.20;;;;;;;24.96;13.77;98718.09;10308767;28;20047;-74
2021/04/14 08:18:31;;;;;;;7.07;1.60;;;;;;;21.97;14.89;98728.38;10334214;28;20067;-73
2021/04/14 08:23:59;;;;;;;5.65;1.13;;;;;;;18.90;16.33;98709.81;10335382;28;20077;-74
2021/04/14 08:29:19;;;;;;;7.65;1.45;;;;;;;17.18;17.89;98713.34;10334942;28;20046;-74
2021/04/14 08:34:40;;;;;;;6.13;0.85;;;;;;;17.93;19.31;98697.72;10321168;28;20094;-74
2021/04/14 08:40:16;;;;;;;4.15;1.35;;;;;;;18.58;18.78;98709.63;10307870;28;20070;-73
2021/04/14 08:45:41;;;;;;;4.57;1.17;;;;;;;20.07;19.01;98699.84;10318664;28;20050;-74
2021/04/14 08:51:04;;;;;;;5.88;1.20;;;;;;;19.02;18.42;98696.31;10346240;28;20042;-74
2021/04/14 08:56:24;;;;;;;4.50;0.90;;;;;;;18.52;19.18;98692.34;10335129;28;20043;-73
2021/04/14 09:01:44;;;;;;;7.60;1.13;;;;;;;17.93;19.32;98694.91;10333962;28;20046;-73
2021/04/14 09:07:04;;;;;;;5.18;1.20;;;;;;;17.12;20.10;98693.22;10320426;28;20042;-74
2021/04/14 09:12:58;;;;;;;6.03;0.90;;;;;;;18.11;20.19;98683.13;10320352;28;20402;-73
2021/04/14 09:18:45;;;;;;;5.32;1.20;;;;;;;19.95;19.17;98688.69;10289462;28;20159;-74
2021/04/14 09:24:07;;;;;;;6.95;1.35;;;;;;;25.00;16.89;98691.78;10262839;28;20059;-72
2021/04/14 09:29:32;;;;;;;7.70;1.40;;;;;;;23.25;15.78;98686.66;10276207;28;20062;-71
2021/04/14 09:34:52;;;;;;;5.95;0.88;;;;;;;24.16;15.82;98689.50;10289294;28;20502;-72
2021/04/14 09:40:12;;;;;;;4.85;1.05;;;;;;;25.44;14.83;98697.88;10275782;28;20054;-72
2021/04/14 09:45:35;;;;;;;3.72;0.90;;;;;;;24.60;14.90;98682.84;10279134;28;20058;-73
2021/04/14 09:50:56;;;;;;;4.40;0.90;;;;;;;25.14;13.78;98685.72;10356031;28;20041;-74
2021/04/14 09:56:19;;;;;;;2.92;0.73;;;;;;;22.89;14.91;98667.00;10306783;28;20485;-73
2021/04/14 10:01:40;;;;;;;3.67;0.82;;;;;;;23.59;14.66;98676.41;10332272;28;20386;-75
2021/04/14 10:07:12;;;;;;;3.83;0.70;;;;;;;21.83;14.71;98671.72;10318523;28;20417;-75
2021/04/14 10:12:32;;;;;;;3.60;0.68;;;;;;;23.62;14.65;98668.63;10317107;28;20401;-76
2021/04/14 10:17:51;;;;;;;5.03;0.88;;;;;;;24.42;13.80;98666.72;10305034;28;20378;-75
2021/04/14 10:23:14;;;;;;;4.55;0.75;;;;;;;21.78;13.87;98667.25;10318508;28;20541;-74
2021/04/14 10:28:40;;;;;;;5.10;0.60;;;;;;;21.53;14.75;98665.59;10317998;28;20441;-75
2021/04/14 10:34:12;;;;;;;5.80;0.98;;;;;;;24.11;13.48;98662.25;10318016;28;20046;-73
2021/04/14 10:39:33;;;;;;;4.00;0.70;;;;;;;24.34;14.07;98660.78;10331641;28;20046;-74
2021/04/14 10:45:05;;;;;;;5.50;0.70;;;;;;;24.95;13.44;98645.25;10331793;28;20349;-74
2021/04/14 10:50:30;;;;;;;3.78;0.82;;;;;;;23.41;12.87;98636.63;10350656;28;20046;-74
2021/04/14 10:55:49;;;;;;;6.30;0.75;;;;;;;21.61;14.03;98634.66;10322506;28;20481;-74
2021/04/14 11:01:13;;;;;;;5.13;1.20;;;;;;;20.91;14.78;98626.88;10331395;28;20054;-75
2021/04/14 11:06:34;;;;;;;4.78;1.10;;;;;;;20.13;14.98;98623.59;10317282;28;20042;-74
2021/04/14 11:11:53;;;;;;;6.72;1.00;;;;;;;18.69;15.55;98640.22;10338340;28;20053;-79
2021/04/14 11:17:28;;;;;;;5.30;1.40;;;;;;;17.06;16.86;98628.00;10324449;28;20091;-80
2021/04/14 11:22:51;;;;;;;4.78;0.65;;;;;;;17.48;17.32;98621.16;10323343;28;20493;-80
2021/04/14 11:28:13;;;;;;;5.18;1.00;;;;;;;17.27;17.18;98624.22;10346453;28;20049;-80
2021/04/14 11:33:39;;;;;;;4.32;0.80;;;;;;;16.78;17.57;98619.41;10350008;28;20050;-74
2021/04/14 11:39:19;;;;;;;6.15;1.08;;;;;;;17.65;17.82;98617.13;10356396;28;20061;-74
2021/04/14 11:44:50;;;;;;;5.32;1.10;;;;;;;17.63;17.57;98619.84;10328674;28;20034;-76
2021/04/14 11:50:29;;;;;;;4.85;0.93;;;;;;;16.90;17.91;98615.84;10357783;28;20046;-74
2021/04/14 11:55:48;;;;;;;5.25;0.90;;;;;;;16.62;18.37;98610.00;10328254;28;20042;-75
2021/04/14 12:01:21;;;;;;;5.72;1.30;;;;;;;16.01;18.94;98612.06;10340015;28;20449;-74
2021/04/14 12:06:41;;;;;;;4.47;0.77;;;;;;;16.50;19.02;98612.88;10337520;28;20046;-76
2021/04/14 12:12:05;;;;;;;5.47;1.00;;;;;;;16.37;18.92;98607.84;10314708;28;20398;-74
2021/04/14 12:17:25;;;;;;;4.40;0.80;;;;;;;16.04;18.95;98602.41;10336155;28;20042;-75
2021/04/14 12:22:44;;;;;;;4.50;1.00;;;;;;;15.74;19.34;98598.50;10322508;28;20405;-75
2021/04/14 12:28:04;;;;;;;5.32;0.63;;;;;;;15.68;19.47;98589.66;10338015;28;20038;-75
2021/04/14 12:33:24;;;;;;;4.97;1.00;;;;;;;15.64;19.61;98592.97;10321905;28;20042;-75
2021/04/14 12:38:43;;;;;;;6.57;0.95;;;;;;;15.34;19.70;98588.25;10335123;28;20497;-75
2021/04/14 12:44:04;;;;;;;6.13;1.13;;;;;;;15.58;19.70;98578.50;10313845;28;20050;-75
2021/04/14 12:49:23;;;;;;;3.67;1.00;;;;;;;15.50;19.79;98578.00;10348170;28;20042;-75
2021/04/14 12:54:43;;;;;;;3.33;0.63;;;;;;;15.50;19.91;98572.38;10334922;28;20069;-75
2021/04/14 13:00:11;;;;;;;2.45;0.73;;;;;;;15.47;19.68;98567.97;10307393;28;20042;-75
2021/04/14 13:05:39;;;;;;;5.22;0.82;;;;;;;15.66;19.71;98567.75;10319982;28;20398;-75
2021/04/14 13:11:21;;;;;;;6.28;0.93;;;;;;;15.51;19.54;98565.41;10319808;28;20382;-76
2021/04/14 13:16:54;;;;;;;4.43;0.80;;;;;;;15.12;19.76;98545.41;10325572;28;20045;-76
2021/04/14 13:23:03;;;;;;;2.33;0.50;;;;;;;14.17;20.02;98565.25;10322463;28;20035;-75
2021/04/14 13:28:28;;;;;;;4.28;0.60;;;;;;;14.03;20.44;98551.75;10348748;28;20042;-75
2021/04/14 13:34:01;;;;;;;3.70;0.73;;;;;;;14.06;20.42;98554.69;10348778;28;20042;-74
2021/04/14 13:39:28;;;;;;;4.60;0.70;;;;;;;13.58;20.80;98547.28;10307186;28;20034;-76
2021/04/14 13:45:13;;;;;;;5.32;0.65;;;;;;;13.63;21.24;98538.53;10320360;28;20104;-74
2021/04/14 13:51:00;;;;;;;3.30;0.85;;;;;;;13.89;21.26;98530.41;10351949;28;20038;-73
2021/04/14 13:56:20;;;;;;;4.70;0.60;;;;;;;14.08;21.33;98513.44;10341490;28;20050;-75
2021/04/14 14:01:54;;;;;;;2.88;0.52;;;;;;;13.85;21.25;98508.44;10349972;28;20046;-75
2021/04/14 14:07:54;;;;;;;3.15;0.38;;;;;;;13.82;21.01;98503.31;10323566;28;20536;-75
2021/04/14 14:13:41;;;;;;;5.03;0.65;;;;;;;13.80;21.20;98506.72;10321389;28;20054;-75
2021/04/14 14:19:25;;;;;;;3.40;0.70;;;;;;;13.65;21.24;98502.22;10332609;28;20034;-77
2021/04/14 14:24:44;;;;;;;2.55;0.50;;;;;;;13.37;21.47;98500.28;10310981;28;20049;-76
2021/04/14 14:30:06;;;;;;;3.72;0.65;;;;;;;13.07;21.48;98498.88;10320552;28;20069;-76
2021/04/14 14:35:29;;;;;;;3.15;0.60;;;;;;;13.01;21.85;98495.66;10318630;28;20065;-76
2021/04/14 14:40:51;;;;;;;3.67;1.08;;;;;;;12.54;21.93;98500.75;10332251;28;20038;-75
2021/04/14 14:46:15;;;;;;;3.20;0.50;;;;;;;11.95;22.36;98491.63;10312582;28;20449;-75
2021/04/14 14:51:34;;;;;;;2.75;0.38;;;;;;;11.20;23.16;98488.03;10325815;28;20054;-76
2021/04/14 14:57:25;;;;;;;2.42;0.57;;;;;;;10.76;23.51;98494.41;10325588;28;20042;-76
2021/04/14 15:02:44;;;;;;;5.80;0.50;;;;;;;10.82;23.77;98498.41;10322244;28;20058;-76
2021/04/14 15:08:04;;;;;;;3.28;0.57;;;;;;;11.17;24.07;98487.09;10338773;28;20402;-75
2021/04/14 15:13:24;;;;;;;1.77;0.30;;;;;;;11.40;23.70;98489.56;10325050;28;20041;-76
2021/04/14 15:18:46;;;;;;;3.78;0.50;;;;;;;11.32;23.85;98478.50;10324777;28;20055;-76
2021/04/14 15:24:06;;;;;;;2.05;0.40;;;;;;;11.37;24.05;98479.53;10338276;28;20486;-75
2021/04/14 15:29:26;;;;;;;5.22;0.60;;;;;;;11.29;24.38;98484.50;10324471;28;20174;-75
2021/04/14 15:34:48;;;;;;;3.30;0.90;;;;;;;10.62;24.99;98488.44;10337742;28;20122;-77
2021/04/14 15:40:09;;;;;;;2.72;0.55;;;;;;;10.15;25.33;98497.91;10337818;28;20096;-73
2021/04/14 15:45:29;;;;;;;4.97;0.70;;;;;;;10.04;25.81;98483.16;10324071;28;20069;-76
2021/04/14 15:50:49;;;;;;;3.03;0.60;;;;;;;10.16;25.72;98482.66;10373412;28;20390;-76
2021/04/14 15:56:09;;;;;;;2.80;0.95;;;;;;;9.84;26.39;98487.03;10327228;28;20053;-80
2021/04/14 16:01:38;;;;;;;3.67;0.88;;;;;;;9.45;27.77;98485.91;10313170;28;20129;-80
2021/04/14 16:06:58;;;;;;;4.38;0.68;;;;;;;9.22;28.37;98488.88;10337993;28;20041;-76
2021/04/14 16:12:17;;;;;;;4.53;0.85;;;;;;;9.15;28.13;98487.63;10336456;28;20042;-76
2021/04/14 16:17:38;;;;;;;7.40;1.17;;;;;;;8.96;28.88;98486.63;10340571;28;20046;-75
2021/04/14 16:22:57;;;;;;;3.28;0.80;;;;;;;8.64;28.61;98493.69;10336059;28;20042;-75
2021/04/14 16:28:18;;;;;;;2.65;0.90;;;;;;;8.57;29.16;98491.69;10346100;28;20100;-75
2021/04/14 16:33:38;;;;;;;4.68;0.88;;;;;;;8.50;29.91;98492.47;10362102;28;20038;-75
2021/04/14 16:38:58;;;;;;;5.10;0.90;;;;;;;8.47;29.56;98494.31;10349431;28;20488;-77
2021/04/14 16:44:19;;;;;;;2.38;0.60;;;;;;;8.25;30.57;98490.28;10361918;28;20382;-77
2021/04/14 16:49:39;;;;;;;5.55;0.90;;;;;;;8.11;29.72;98480.72;10335524;28;20034;-78
2021/04/14 16:54:59;;;;;;;2.22;0.43;;;;;;;8.08;29.57;98494.97;10334742;28;20050;-79
2021/04/14 17:00:43;;;;;;;3.72;0.40;;;;;;;7.91;29.69;98484.44;10346039;28;20045;-78
2021/04/14 17:06:03;;;;;;;4.43;0.80;;;;;;;7.68;29.68;98488.00;10226783;28;20558;-76
2021/04/14 17:11:24;;;;;;;2.42;0.68;;;;;;;7.46;29.97;98491.56;10210875;29;20048;-79
2021/04/14 17:16:47;;;;;;;2.35;0.70;;;;;;;7.31;30.29;98488.78;10211625;29;20051;-77
2021/04/14 17:22:08;;;;;;;3.80;0.55;;;;;;;7.13;30.43;98493.38;10211110;29;20146;-77
2021/04/14 17:27:28;;;;;;;2.80;0.65;;;;;;;6.94;30.44;98493.72;10197912;29;20047;-76
2021/04/14 17:32:48;;;;;;;3.03;0.70;;;;;;;6.79;30.93;98496.47;10197896;29;20044;-76
2021/04/14 17:38:11;;;;;;;2.65;0.88;;;;;;;6.64;30.83;98496.44;10306307;28;20125;-76
2021/04/14 17:43:32;;;;;;;3.25;0.65;;;;;;;6.46;31.60;98496.19;10294282;28;20056;-78
2021/04/14 17:48:52;;;;;;;4.65;0.75;;;;;;;6.27;31.74;98501.28;10325313;28;20509;-79
2021/04/14 17:54:11;;;;;;;3.17;0.70;;;;;;;6.16;31.49;98509.91;10333485;28;20068;-79
2021/04/14 17:59:31;;;;;;;6.35;0.90;;;;;;;6.00;31.71;98511.88;10347532;28;20113;-79
2021/04/14 18:04:52;;;;;;;8.05;1.13;;;;;;;5.89;32.59;98521.19;10332223;28;20049;-73
2021/04/14 18:10:16;;;;;;;3.67;1.23;;;;;;;5.80;32.28;98527.25;10346260;28;20042;-74
2021/04/14 18:15:36;;;;;;;6.85;1.73;;;;;;;5.77;32.79;98522.75;10359309;28;20528;-74
2021/04/14 18:20:57;;;;;;;3.95;1.35;;;;;;;5.69;32.83;98538.59;10354076;28;20042;-75
2021/04/14 18:26:18;;;;;;;7.32;1.55;;;;;;;5.58;32.85;98538.88;10353814;28;20056;-76
2021/04/14 18:31:41;;;;;;;9.80;2.20;;;;;;;5.45;33.37;98543.22;10353680;28;20042;-75
2021/04/14 18:37:00;;;;;;;9.50;2.33;;;;;;;5.34;33.91;98549.03;10353696;28;20447;-76
2021/04/14 18:42:22;;;;;;;7.45;2.00;;;;;;;5.28;33.66;98544.91;10353022;28;20068;-76
2021/04/14 18:47:42;;;;;;;8.43;2.83;;;;;;;5.19;35.71;98546.09;10366541;28;20100;-76
2021/04/14 18:53:02;;;;;;;6.20;2.00;;;;;;;5.15;34.42;98546.44;10353057;28;20057;-75
2021/04/14 18:58:22;;;;;;;5.75;2.20;;;;;;;5.10;34.32;98555.59;10352574;28;20046;-75
2021/04/14 19:03:42;;;;;;;7.60;1.90;;;;;;;4.99;35.17;98563.44;10352307;28;20046;-75
2021/04/14 19:09:07;;;;;;;6.80;2.20;;;;;;;4.84;35.25;98567.53;10352046;28;20049;-75
2021/04/14 19:14:27;;;;;;;6.03;2.13;;;;;;;4.73;35.04;98570.53;10338813;28;20042;-74
2021/04/14 19:19:47;;;;;;;7.50;2.20;;;;;;;4.59;35.03;98560.75;10348707;28;20050;-76
2021/04/14 19:25:09;;;;;;;6.90;2.47;;;;;;;4.48;35.75;98566.53;10350580;28;20092;-73
2021/04/14 19:30:31;;;;;;;6.22;2.25;;;;;;;4.37;36.06;98572.28;10349942;28;20126;-75
2021/04/14 19:35:52;;;;;;;4.63;1.90;;;;;;;4.27;36.89;98578.25;10337731;28;20084;-75
2021/04/14 19:41:11;;;;;;;5.25;2.35;;;;;;;4.19;36.38;98573.88;10336893;28;20045;-75
2021/04/14 19:46:31;;;;;;;5.43;2.08;;;;;;;4.11;38.38;98561.97;10350514;28;20064;-75
2021/04/14 19:51:53;;;;;;;8.40;2.72;;;;;;;4.02;37.56;98576.94;10350218;28;20501;-75
2021/04/14 19:57:13;;;;;;;8.98;2.58;;;;;;;3.95;37.34;98569.28;10364166;28;20054;-75
2021/04/14 20:02:34;;;;;;;6.20;2.15;;;;;;;3.91;37.21;98568.88;10336582;28;20042;-75
2021/04/14 20:07:55;;;;;;;6.10;2.13;;;;;;;3.90;37.44;98573.66;10348251;28;20038;-74
2021/04/14 20:13:14;;;;;;;8.77;2.38;;;;;;;3.87;38.07;98576.75;10363334;28;20046;-74
2021/04/14 20:18:34;;;;;;;9.02;2.03;;;;;;;3.84;37.82;98578.53;10349526;28;20046;-74
2021/04/14 20:23:54;;;;;;;9.13;2.40;;;;;;;3.78;38.63;98586.19;10349263;28;20053;-74
2021/04/14 20:29:14;;;;;;;8.07;2.65;;;;;;;3.77;38.67;98581.19;10348751;28;20117;-74
2021/04/14 20:34:38;;;;;;;8.35;2.42;;;;;;;3.73;38.96;98587.00;10362112;28;20050;-75
2021/04/14 20:39:58;;;;;;;7.68;2.60;;;;;;;3.70;39.02;98588.06;10361871;28;20432;-75
2021/04/14 20:45:21;;;;;;;7.80;2.38;;;;;;;3.63;39.25;98592.19;10361247;28;20046;-74
2021/04/14 20:50:41;;;;;;;7.55;2.40;;;;;;;3.55;39.61;98591.31;10375766;28;20048;-75
2021/04/14 20:56:03;;;;;;;5.43;2.35;;;;;;;3.48;39.42;98591.22;10334295;28;20042;-74
2021/04/14 21:01:23;;;;;;;6.90;3.17;;;;;;;3.39;39.59;98589.59;10347947;28;20041;-74
2021/04/14 21:06:43;;;;;;;6.97;3.03;;;;;;;3.35;39.40;98589.13;10347452;28;20049;-75
2021/04/14 21:12:05;;;;;;;7.35;3.00;;;;;;;3.27;39.95;98591.00;10361144;28;20116;-74
2021/04/14 21:17:25;;;;;;;7.32;2.65;;;;;;;3.17;40.61;98585.88;10347475;28;20421;-74
2021/04/14 21:22:45;;;;;;;5.65;2.10;;;;;;;3.06;40.30;98575.00;10346998;28;20038;-74
2021/04/14 21:28:05;;;;;;;7.57;2.25;;;;;;;3.00;40.86;98582.63;10346915;28;20046;-75
2021/04/14 21:33:25;;;;;;;7.38;2.42;;;;;;;2.93;41.21;98576.97;10360350;28;20052;-74
2021/04/14 21:38:45;;;;;;;5.75;2.05;;;;;;;2.94;41.55;98575.69;10346651;28;20053;-74
2021/04/14 21:44:06;;;;;;;6.32;1.60;;;;;;;2.90;41.92;98567.72;10346439;28;20042;-74
2021/04/14 21:49:26;;;;;;;4.53;1.70;;;;;;;2.93;42.12;98574.94;10333097;28;20489;-74
2021/04/14 21:54:46;;;;;;;4.38;1.55;;;;;;;2.91;42.52;98560.94;10345423;28;20056;-74
2021/04/14 22:00:36;;;;;;;5.53;2.13;;;;;;;2.91;43.01;98557.44;10346189;28;20042;-74
2021/04/14 22:05:56;;;;;;;5.07;1.70;;;;;;;2.93;43.22;98565.94;10363744;28;20046;-74
2021/04/14 22:11:16;;;;;;;7.55;2.05;;;;;;;2.88;43.52;98561.97;10345994;28;20050;-74
2021/04/14 22:16:36;;;;;;;5.05;1.67;;;;;;;2.85;43.71;98561.00;10345832;28;20504;-74
2021/04/14 22:21:56;;;;;;;5.93;1.80;;;;;;;2.85;44.23;98563.03;10345963;28;20038;-74
2021/04/14 22:27:16;;;;;;;5.65;2.03;;;;;;;2.86;44.28;98567.28;10345506;28;20061;-74
2021/04/14 22:32:35;;;;;;;4.13;1.70;;;;;;;2.80;44.71;98563.88;10359079;28;20393;-74
2021/04/14 22:37:57;;;;;;;6.45;1.92;;;;;;;2.81;44.68;98571.63;10345353;28;20539;-74
2021/04/14 22:43:17;;;;;;;6.03;2.10;;;;;;;2.78;45.65;98567.13;10331992;28;20042;-74
2021/04/14 22:48:36;;;;;;;5.90;1.73;;;;;;;2.72;45.38;98562.97;10331531;28;20404;-74
2021/04/14 22:53:56;;;;;;;5.03;1.63;;;;;;;2.68;45.82;98563.25;10345257;28;20054;-74
2021/04/14 22:59:15;;;;;;;6.10;1.55;;;;;;;2.67;46.24;98566.53;10331276;28;20053;-74
2021/04/14 23:04:35;;;;;;;6.78;1.70;;;;;;;2.61;46.65;98563.13;10349128;28;20053;-74
2021/04/14 23:09:55;;;;;;;7.30;1.70;;;;;;;2.62;46.65;98570.13;10338376;28;20034;-74
2021/04/14 23:15:15;;;;;;;4.50;1.40;;;;;;;2.66;47.31;98567.81;10351951;28;20096;-74
2021/04/14 23:20:37;;;;;;;6.28;1.30;;;;;;;2.73;46.75;98564.47;10338385;28;20042;-74
2021/04/14 23:25:57;;;;;;;5.70;1.77;;;;;;;2.81;47.46;98562.59;10338177;28;20046;-75
2021/04/14 23:31:16;;;;;;;8.05;1.63;;;;;;;2.84;48.19;98556.03;10351586;28;20045;-74
2021/04/14 23:36:36;;;;;;;6.45;1.60;;;;;;;2.91;49.04;98549.19;10351174;28;20046;-74
2021/04/14 23:41:56;;;;;;;6.85;1.70;;;;;;;2.97;47.95;98555.34;10350957;28;20071;-74
2021/04/14 23:47:15;;;;;;;9.38;4.15;;;;;;;3.03;48.08;98548.47;10350779;28;20045;-74
2021/04/14 23:52:35;;;;;;;10.50;5.35;;;;;;;3.11;48.41;98552.13;10350738;28;20539;-74
2021/04/14 23:58:03;;;;;;;10.95;5.18;;;;;;;3.14;48.27;98539.28;10350540;28;20467;-74
